createdAt,value
2018-02-03T00:00:33.113Z,7.28
2018-02-03T00:03:02.282Z,10.20
2018-02-03T00:05:30.413Z,7.25
2018-02-03T00:07:58.424Z,7.32
2018-02-03T00:10:29.765Z,8.90
2018-02-03T00:12:59.817Z,10.02
2018-02-03T00:15:28.114Z,7.40
2018-02-03T00:17:56.134Z,9.20
2018-02-03T00:20:24.172Z,7.68
2018-02-03T00:22:55.225Z,9.43
2018-02-03T00:25:24.229Z,5.78
2018-02-03T00:27:52.249Z,5.70
2018-02-03T00:30:20.349Z,10.70
2018-02-03T00:32:49.369Z,11.85
2018-02-03T00:35:18.355Z,5.10
2018-02-03T00:37:46.361Z,7.60
2018-02-03T00:40:14.373Z,6.78
2018-02-03T00:42:44.393Z,9.02
2018-02-03T00:45:17.988Z,9.02
2018-02-03T00:47:46.108Z,7.75
2018-02-03T00:50:15.793Z,5.78
2018-02-03T00:52:44.777Z,6.87
2018-02-03T00:55:12.829Z,7.15
2018-02-03T00:57:40.808Z,8.75
2018-02-03T01:00:09.796Z,9.48
2018-02-03T01:02:38.796Z,7.30
2018-02-03T01:05:06.840Z,7.28
2018-02-03T01:07:35.850Z,5.90
2018-02-03T01:10:03.861Z,6.20
2018-02-03T01:12:32.644Z,9.70
2018-02-03T01:15:02.464Z,7.78
2018-02-03T01:17:33.168Z,13.43
2018-02-03T01:20:02.141Z,10.23
2018-02-03T01:22:31.856Z,6.07
2018-02-03T01:25:00.508Z,7.40
2018-02-03T01:27:29.532Z,6.68
2018-02-03T01:29:59.532Z,8.45
2018-02-03T01:32:27.561Z,7.40
2018-02-03T01:34:56.361Z,6.43
2018-02-03T01:37:24.404Z,10.02
2018-02-03T01:39:55.167Z,9.48
2018-02-03T01:42:23.192Z,7.72
2018-02-03T01:44:51.208Z,7.00
2018-02-03T01:47:21.180Z,7.10
2018-02-03T01:49:53.944Z,9.15
2018-02-03T01:52:21.968Z,15.65
2018-02-03T01:54:54.500Z,9.05
2018-02-03T01:57:22.540Z,6.22
2018-02-03T01:59:50.544Z,7.90
2018-02-03T02:02:18.550Z,9.45
2018-02-03T02:04:51.901Z,8.07
2018-02-03T02:07:21.896Z,9.02
2018-02-03T02:09:49.924Z,9.13
2018-02-03T02:12:17.936Z,10.43
2018-02-03T02:14:46.952Z,6.15
2018-02-03T02:17:15.945Z,9.63
2018-02-03T02:19:44.001Z,6.62
2018-02-03T02:22:12.020Z,6.53
2018-02-03T02:24:41.768Z,5.85
2018-02-03T02:27:13.740Z,8.35
2018-02-03T02:29:41.756Z,9.90
2018-02-03T02:32:10.572Z,6.93
2018-02-03T02:34:38.576Z,7.43
2018-02-03T02:37:07.576Z,10.98
2018-02-03T02:39:36.540Z,8.02
2018-02-03T02:42:05.540Z,8.80
2018-02-03T02:44:33.568Z,9.18
2018-02-03T02:47:06.292Z,8.93
2018-02-03T02:49:37.957Z,11.35
2018-02-03T02:52:05.971Z,7.25
2018-02-03T02:54:39.640Z,7.93
2018-02-03T02:57:07.656Z,9.35
2018-02-03T02:59:38.328Z,6.18
2018-02-03T03:02:10.288Z,8.57
2018-02-03T03:04:38.304Z,7.22
2018-02-03T03:07:06.308Z,8.40
2018-02-03T03:09:35.304Z,8.73
2018-02-03T03:12:05.355Z,9.25
2018-02-03T03:14:34.334Z,8.68
2018-02-03T03:17:02.628Z,10.40
2018-02-03T03:19:33.340Z,9.57
2018-02-03T03:22:01.432Z,7.57
2018-02-03T03:24:31.236Z,9.98
2018-02-03T03:27:02.244Z,9.35
2018-02-03T03:29:31.251Z,9.07
2018-02-03T03:31:59.264Z,10.63
2018-02-03T03:34:27.300Z,12.57
2018-02-03T03:36:55.361Z,9.05
2018-02-03T03:39:23.392Z,8.70
2018-02-03T03:41:55.908Z,10.13
2018-02-03T03:44:23.948Z,9.20
2018-02-03T03:46:59.140Z,16.52
2018-02-03T03:49:27.947Z,8.77
2018-02-03T03:51:57.695Z,9.75
2018-02-03T03:54:31.520Z,15.27
2018-02-03T03:56:59.544Z,12.10
2018-02-03T03:59:28.460Z,11.48
2018-02-03T04:01:59.924Z,7.47
2018-02-03T04:04:27.940Z,10.73
2018-02-03T04:06:56.896Z,9.80
2018-02-03T04:09:24.903Z,8.23
2018-02-03T04:12:00.680Z,10.02
2018-02-03T04:14:28.743Z,13.48
2018-02-03T04:17:02.403Z,8.88
2018-02-03T04:19:36.900Z,11.93
2018-02-03T04:22:06.836Z,11.77
2018-02-03T04:24:35.623Z,12.32
2018-02-03T04:27:05.411Z,10.60
2018-02-03T04:29:34.331Z,11.80
2018-02-03T04:32:03.095Z,13.45
2018-02-03T04:34:32.147Z,15.48
2018-02-03T04:37:00.141Z,9.52
2018-02-03T04:39:30.967Z,12.65
2018-02-03T04:42:02.143Z,12.35
2018-02-03T04:44:31.127Z,11.25
2018-02-03T04:46:59.135Z,9.23
2018-02-03T04:49:27.151Z,10.88
2018-02-03T04:51:56.143Z,13.07
2018-02-03T04:54:24.150Z,9.70
2018-02-03T04:56:53.103Z,11.75
2018-02-03T04:59:23.063Z,13.07
2018-02-03T05:01:51.847Z,11.12
2018-02-03T05:04:21.615Z,10.52
2018-02-03T05:06:50.615Z,10.65
2018-02-03T05:09:18.631Z,14.20
2018-02-03T05:11:46.639Z,14.05
2018-02-03T05:14:15.643Z,10.73
2018-02-03T05:16:44.663Z,11.15
2018-02-03T05:19:15.779Z,15.32
2018-02-03T05:21:43.816Z,13.10
2018-02-03T05:24:13.551Z,17.65
2018-02-03T05:26:41.555Z,12.35
2018-02-03T05:29:09.595Z,11.80
2018-02-03T05:31:39.626Z,9.68
2018-02-03T05:34:09.775Z,14.70
2018-02-03T05:36:38.719Z,11.88
2018-02-03T05:39:06.728Z,9.52
2018-02-03T05:41:35.647Z,11.85
2018-02-03T05:44:04.563Z,14.68
2018-02-03T05:46:32.602Z,13.00
2018-02-03T05:49:12.059Z,14.27
2018-02-03T05:51:40.067Z,13.45
2018-02-03T05:54:09.056Z,11.05
2018-02-03T05:56:42.223Z,9.15
2018-02-03T05:59:10.243Z,12.10
2018-02-03T06:01:42.154Z,11.12
2018-02-03T06:04:13.923Z,9.32
2018-02-03T06:06:41.938Z,12.73
2018-02-03T06:09:09.947Z,7.97
2018-02-03T06:11:49.771Z,10.57
2018-02-03T06:14:18.559Z,10.05
2018-02-03T06:16:47.470Z,10.40
2018-02-03T06:19:15.559Z,11.00
2018-02-03T06:21:49.267Z,14.70
2018-02-03T06:24:17.302Z,10.60
2018-02-03T06:26:46.346Z,10.68
2018-02-03T06:29:15.322Z,10.90
2018-02-03T06:31:43.330Z,10.85
2018-02-03T06:34:11.359Z,11.25
2018-02-03T06:36:51.786Z,16.65
2018-02-03T06:39:20.795Z,11.50
2018-02-03T06:41:48.835Z,10.73
2018-02-03T06:44:16.851Z,10.30
2018-02-03T06:46:44.866Z,12.05
2018-02-03T06:49:14.818Z,9.32
2018-02-03T06:51:44.750Z,14.38
2018-02-03T06:54:25.074Z,11.63
2018-02-03T06:56:54.090Z,13.40
2018-02-03T06:59:23.086Z,13.68
2018-02-03T07:01:56.686Z,14.25
2018-02-03T07:04:31.990Z,16.90
2018-02-03T07:07:00.043Z,15.15
2018-02-03T07:09:31.766Z,13.30
2018-02-03T07:12:05.590Z,11.40
2018-02-03T07:14:35.394Z,10.55
2018-02-03T07:17:05.522Z,12.37
2018-02-03T07:19:40.626Z,13.07
2018-02-03T07:22:12.726Z,13.98
2018-02-03T07:24:42.510Z,11.30
2018-02-03T07:27:10.542Z,16.25
2018-02-03T07:29:39.558Z,15.73
2018-02-03T07:32:11.630Z,12.90
2018-02-03T07:34:39.638Z,14.07
2018-02-03T07:37:07.666Z,11.23
2018-02-03T07:39:41.418Z,16.02
2018-02-03T07:42:11.423Z,12.27
2018-02-03T07:44:44.213Z,12.20
2018-02-03T07:47:13.982Z,13.00
2018-02-03T07:49:41.994Z,9.32
2018-02-03T07:52:10.030Z,13.05
2018-02-03T07:54:38.034Z,23.48
2018-02-03T07:57:08.002Z,12.15
2018-02-03T07:59:36.990Z,16.48
2018-02-03T08:02:09.589Z,17.90
2018-02-03T08:04:39.638Z,15.13
2018-02-03T08:07:08.606Z,14.25
2018-02-03T08:09:37.399Z,27.00
2018-02-03T08:12:07.394Z,16.25
2018-02-03T08:14:35.755Z,22.00
2018-02-03T08:17:04.658Z,25.92
2018-02-03T08:19:33.650Z,15.98
2018-02-03T08:22:01.660Z,14.77
2018-02-03T08:24:29.670Z,12.82
2018-02-03T08:26:59.696Z,13.10
2018-02-03T08:29:31.464Z,15.00
2018-02-03T08:32:00.459Z,14.90
2018-02-03T08:34:28.454Z,12.45
2018-02-03T08:36:56.482Z,14.65
2018-02-03T08:39:25.466Z,14.70
2018-02-03T08:41:53.478Z,13.60
2018-02-03T08:44:24.170Z,16.00
2018-02-03T08:46:52.202Z,16.48
2018-02-03T08:49:21.122Z,13.90
2018-02-03T08:51:55.122Z,14.10
2018-02-03T08:54:24.070Z,13.60
2018-02-03T08:56:52.900Z,15.02
2018-02-03T08:59:20.910Z,13.38
2018-02-03T09:01:48.920Z,14.95
2018-02-03T09:04:18.878Z,13.15
2018-02-03T09:06:47.798Z,14.40
2018-02-03T09:09:17.562Z,13.80
2018-02-03T09:14:41.258Z,12.93
2018-02-03T09:17:09.318Z,13.88
2018-02-03T09:19:39.310Z,14.60
2018-02-03T09:22:07.346Z,14.85
2018-02-03T09:24:36.326Z,16.12
2018-02-03T09:27:04.343Z,17.37
2018-02-03T09:29:32.353Z,16.25
2018-02-03T09:32:02.880Z,16.70
2018-02-03T09:34:35.462Z,16.87
2018-02-03T09:37:04.238Z,16.00
2018-02-03T09:39:32.241Z,14.87
2018-02-03T09:42:02.970Z,18.12
2018-02-03T09:44:31.886Z,19.50
2018-02-03T09:46:59.905Z,17.15
2018-02-03T09:49:28.814Z,17.02
2018-02-03T09:51:57.774Z,21.65
2018-02-03T09:54:26.566Z,24.83
2018-02-03T09:56:56.606Z,24.12
2018-02-03T09:59:24.630Z,19.17
2018-02-03T10:01:53.562Z,18.98
2018-02-03T10:04:25.902Z,20.23
2018-02-03T10:06:53.922Z,16.52
2018-02-03T10:09:22.751Z,17.23
2018-02-03T10:11:53.402Z,18.10
2018-02-03T10:14:21.417Z,16.25
2018-02-03T10:16:50.206Z,15.77
2018-02-03T10:19:18.986Z,18.10
2018-02-03T10:21:49.701Z,17.25
2018-02-03T10:24:17.709Z,16.73
2018-02-03T10:26:47.662Z,18.30
2018-02-03T10:29:19.825Z,17.33
2018-02-03T10:31:47.850Z,21.05
2018-02-03T10:34:15.866Z,19.83
2018-02-03T10:36:51.559Z,19.00
2018-02-03T10:39:20.346Z,16.65
2018-02-03T10:41:49.117Z,17.27
2018-02-03T10:44:19.113Z,18.98
2018-02-03T10:46:48.125Z,18.67
2018-02-03T10:49:17.034Z,18.62
2018-02-03T10:51:45.797Z,20.33
2018-02-03T10:54:18.149Z,20.10
2018-02-03T10:56:46.261Z,19.27
2018-02-03T10:59:15.205Z,17.85
2018-02-03T11:01:43.272Z,19.27
2018-02-03T11:04:11.989Z,15.77
2018-02-03T11:06:40.014Z,15.57
2018-02-03T11:09:08.070Z,20.20
2018-02-03T11:11:36.681Z,21.33
2018-02-03T11:14:04.697Z,18.48
2018-02-03T11:16:33.485Z,17.33
2018-02-03T11:19:03.261Z,20.15
2018-02-03T11:21:36.401Z,23.85
2018-02-03T11:24:04.413Z,17.62
2018-02-03T11:26:35.761Z,15.25
2018-02-03T11:29:09.473Z,14.65
2018-02-03T11:31:41.113Z,15.82
2018-02-03T11:34:11.041Z,19.90
2018-02-03T11:36:39.077Z,13.48
2018-02-03T11:39:07.093Z,20.27
2018-02-03T11:41:35.109Z,13.32
2018-02-03T11:44:03.113Z,16.45
2018-02-03T11:46:32.029Z,14.02
2018-02-03T11:49:01.932Z,13.82
2018-02-03T11:51:30.909Z,17.65
2018-02-03T11:53:58.924Z,15.93
2018-02-03T11:56:27.689Z,13.25
2018-02-03T11:58:55.692Z,16.60
2018-02-03T12:01:23.710Z,15.35
2018-02-03T12:03:51.721Z,19.12
2018-02-03T12:06:20.501Z,18.02
2018-02-03T12:08:49.277Z,15.20
2018-02-03T12:11:17.301Z,17.40
2018-02-03T12:13:45.311Z,16.87
2018-02-03T12:16:13.325Z,17.05
2018-02-03T12:18:44.593Z,16.25
2018-02-03T12:21:12.609Z,17.52
2018-02-03T12:23:44.185Z,15.93
2018-02-03T12:26:12.201Z,18.42
2018-02-03T12:28:40.221Z,15.90
2018-02-03T12:31:09.957Z,13.85
2018-02-03T12:33:42.261Z,15.38
2018-02-03T12:36:10.265Z,16.75
2018-02-03T12:38:38.285Z,14.70
2018-02-03T12:41:10.473Z,12.35
2018-02-03T12:43:44.941Z,14.07
2018-02-03T12:46:16.049Z,14.80
2018-02-03T12:48:45.828Z,16.65
2018-02-03T12:51:17.605Z,7.68
2018-02-03T12:53:45.981Z,10.50
2018-02-03T12:56:13.989Z,7.97
2018-02-03T12:58:42.937Z,5.78
2018-02-03T13:01:16.508Z,6.28
2018-02-03T13:03:45.537Z,5.25
2018-02-03T13:06:15.549Z,5.87
2018-02-03T13:08:43.549Z,6.30
2018-02-03T13:11:23.109Z,6.50
2018-02-03T13:13:51.125Z,6.87
2018-02-03T13:16:19.143Z,8.55
2018-02-03T13:18:51.213Z,6.53
2018-02-03T13:21:19.225Z,7.90
2018-02-03T13:23:47.229Z,6.20
2018-02-03T13:26:15.997Z,5.93
2018-02-03T13:28:44.781Z,5.60
2018-02-03T13:31:12.780Z,7.18
2018-02-03T13:33:40.849Z,7.62
2018-02-03T13:36:12.461Z,7.47
2018-02-03T13:38:40.445Z,7.93
2018-02-03T13:41:09.217Z,7.28
2018-02-03T13:43:37.221Z,7.90
2018-02-03T13:46:06.128Z,6.25
2018-02-03T13:48:34.136Z,7.18
2018-02-03T13:51:10.501Z,8.77
2018-02-03T13:53:42.929Z,9.13
2018-02-03T13:56:10.934Z,8.85
2018-02-03T13:58:39.841Z,10.25
2018-02-03T14:01:09.941Z,15.45
2018-02-03T14:03:39.840Z,7.72
2018-02-03T14:06:11.372Z,8.82
2018-02-03T14:08:41.264Z,9.05
2018-02-03T14:11:10.073Z,7.87
2018-02-03T14:13:38.085Z,11.07
2018-02-03T14:16:07.852Z,7.95
2018-02-03T14:18:36.568Z,8.10
2018-02-03T14:21:04.568Z,7.12
2018-02-03T14:23:34.560Z,6.32
2018-02-03T14:26:13.117Z,5.93
2018-02-03T14:28:41.873Z,6.90
2018-02-03T14:31:09.889Z,6.97
2018-02-03T14:33:37.897Z,7.07
2018-02-03T14:36:06.571Z,8.90
2018-02-03T14:38:35.445Z,8.15
2018-02-03T14:41:03.498Z,8.27
2018-02-03T14:43:31.445Z,10.88
2018-02-03T14:46:00.369Z,8.52
2018-02-03T14:48:28.772Z,8.73
2018-02-03T14:50:56.773Z,7.75
2018-02-03T14:53:24.784Z,9.50
2018-02-03T14:55:53.145Z,6.72
2018-02-03T14:58:23.836Z,9.82
2018-02-03T15:00:55.559Z,9.55
2018-02-03T15:03:23.561Z,16.30
2018-02-03T15:05:51.932Z,9.95
2018-02-03T15:08:19.948Z,8.35
2018-02-03T15:10:49.720Z,11.55
2018-02-03T15:13:17.736Z,10.77
2018-02-03T15:15:50.196Z,11.93
2018-02-03T15:18:19.176Z,13.85
2018-02-03T15:20:47.184Z,10.82
2018-02-03T15:23:15.288Z,10.65
2018-02-03T15:25:48.716Z,14.18
2018-02-03T15:28:17.700Z,14.50
2018-02-03T15:30:57.392Z,13.98
2018-02-03T15:33:35.346Z,16.12
2018-02-03T15:36:05.352Z,13.85
2018-02-03T15:38:34.324Z,12.95
2018-02-03T15:41:02.337Z,14.23
2018-02-03T15:43:31.108Z,15.05
2018-02-03T15:45:59.128Z,14.25
2018-02-03T15:48:27.920Z,14.68
2018-02-03T15:50:56.820Z,14.30
2018-02-03T15:53:25.308Z,16.48
2018-02-03T15:55:58.344Z,19.15
2018-02-03T15:58:27.920Z,14.82
2018-02-03T16:00:56.892Z,13.18
2018-02-03T16:03:28.708Z,12.90
2018-02-03T16:05:57.816Z,14.07
2018-02-03T16:08:25.848Z,13.48
2018-02-03T16:10:54.832Z,14.43
2018-02-03T16:13:27.468Z,13.85
2018-02-03T16:15:57.416Z,13.73
2018-02-03T16:18:25.436Z,16.10
2018-02-03T16:20:53.960Z,13.00
2018-02-03T16:23:21.504Z,12.90
2018-02-03T16:25:49.484Z,15.35
2018-02-03T16:28:17.508Z,15.57
2018-02-03T16:30:45.596Z,14.48
2018-02-03T16:33:14.541Z,13.95
2018-02-03T16:35:44.540Z,14.18
2018-02-03T16:38:12.624Z,14.52
2018-02-03T16:40:57.980Z,36.83
2018-02-03T16:43:26.984Z,13.15
2018-02-03T16:45:55.976Z,15.15
2018-02-03T16:48:23.980Z,15.68
2018-02-03T16:50:52.752Z,13.18
2018-02-03T16:53:22.733Z,14.15
2018-02-03T16:55:50.744Z,16.02
2018-02-03T16:58:20.524Z,14.40
2018-02-03T17:00:49.528Z,14.73
2018-02-03T17:03:22.803Z,17.00
2018-02-03T17:05:50.864Z,26.98
2018-02-03T17:08:18.888Z,22.25
2018-02-03T17:10:48.608Z,18.35
2018-02-03T17:13:17.424Z,10.32
2018-02-03T17:15:46.444Z,16.85
2018-02-03T17:18:16.107Z,15.63
2018-02-03T17:20:46.184Z,14.35
2018-02-03T17:23:14.237Z,30.95
2018-02-03T17:25:47.864Z,18.60
2018-02-03T17:28:25.012Z,14.57
2018-02-03T17:30:54.013Z,13.02
2018-02-03T17:33:22.036Z,20.90
2018-02-03T17:35:53.337Z,28.58
2018-02-03T17:38:31.636Z,19.00
2018-02-03T17:41:05.476Z,20.08
2018-02-03T17:43:37.776Z,27.20
2018-02-03T17:46:11.488Z,32.25
2018-02-03T17:48:39.536Z,20.33
2018-02-03T17:51:11.980Z,25.10
2018-02-03T17:53:41.979Z,12.52
2018-02-03T17:56:22.016Z,17.77
2018-02-03T17:58:53.692Z,14.20
2018-02-03T18:01:21.720Z,9.07
2018-02-03T18:03:50.500Z,15.32
2018-02-03T18:06:37.675Z,10.38
2018-02-03T18:09:06.119Z,15.90
2018-02-03T18:11:36.148Z,18.12
2018-02-03T18:14:11.240Z,19.23
2018-02-03T18:16:46.903Z,16.77
2018-02-03T18:19:16.819Z,12.35
2018-02-03T18:21:45.743Z,10.88
2018-02-03T18:24:13.759Z,10.65
2018-02-03T18:26:41.815Z,10.18
2018-02-03T18:29:16.595Z,10.15
2018-02-03T18:31:47.179Z,11.93
2018-02-03T18:34:15.999Z,14.20
2018-02-03T18:36:44.907Z,18.48
2018-02-03T18:39:13.839Z,17.30
2018-02-03T18:41:42.631Z,15.00
2018-02-03T18:44:11.663Z,18.70
2018-02-03T18:46:43.477Z,19.52
2018-02-03T18:49:11.623Z,15.65
2018-02-03T18:51:40.607Z,16.60
2018-02-03T18:54:09.601Z,19.25
2018-02-03T18:56:37.631Z,19.02
2018-02-03T18:59:06.599Z,16.73
2018-02-03T19:01:35.391Z,18.00
2018-02-03T19:04:09.831Z,19.30
2018-02-03T19:06:39.535Z,19.95
2018-02-03T19:09:07.550Z,16.60
2018-02-03T19:11:37.587Z,14.93
2018-02-03T19:14:07.515Z,15.85
2018-02-03T19:16:37.211Z,15.93
2018-02-03T19:19:07.275Z,17.60
2018-02-03T19:21:36.311Z,16.17
2018-02-03T19:24:04.355Z,14.50
2018-02-03T19:26:35.215Z,15.45
2018-02-03T19:29:03.235Z,14.50
2018-02-03T19:31:36.499Z,16.92
2018-02-03T19:34:06.527Z,35.63
2018-02-03T19:36:46.279Z,18.92
2018-02-03T19:39:14.339Z,14.68
2018-02-03T19:41:44.143Z,15.52
2018-02-03T19:44:12.932Z,16.70
2018-02-03T19:46:46.039Z,19.20
2018-02-03T19:49:15.719Z,19.37
2018-02-03T19:51:43.767Z,26.95
2018-02-03T19:54:12.991Z,14.87
2018-02-03T19:56:42.886Z,18.02
2018-02-03T19:59:11.439Z,18.17
2018-02-03T20:01:39.819Z,17.73
2018-02-03T20:04:07.843Z,17.40
2018-02-03T20:06:44.855Z,16.25
2018-02-03T20:09:13.095Z,12.55
2018-02-03T20:11:41.139Z,15.23
2018-02-03T20:14:09.159Z,14.23
2018-02-03T20:16:44.442Z,10.75
2018-02-03T20:19:12.915Z,16.37
2018-02-03T20:21:45.867Z,12.85
2018-02-03T20:24:14.851Z,13.55
2018-02-03T20:26:42.871Z,13.00
2018-02-03T20:29:10.926Z,18.05
2018-02-03T20:31:39.943Z,19.02
2018-02-03T20:34:07.959Z,11.63
2018-02-03T20:36:44.191Z,15.73
2018-02-03T20:39:12.209Z,15.60
2018-02-03T20:41:59.750Z,14.05
2018-02-03T20:44:27.762Z,14.50
2018-02-03T20:46:56.550Z,12.40
2018-02-03T20:49:32.647Z,13.20
2018-02-03T20:52:04.738Z,13.15
2018-02-03T20:54:32.751Z,12.25
2018-02-03T20:57:06.306Z,14.07
2018-02-03T20:59:34.307Z,12.70
2018-02-03T21:02:04.023Z,16.20
2018-02-03T21:04:33.071Z,13.80
2018-02-03T21:07:02.995Z,17.27
2018-02-03T21:09:31.022Z,13.18
2018-02-03T21:12:08.830Z,11.98
2018-02-03T21:14:43.562Z,13.52
2018-02-03T21:17:13.530Z,13.73
2018-02-03T21:19:41.550Z,14.25
2018-02-03T21:22:10.726Z,13.55
2018-02-03T21:24:38.762Z,13.45
2018-02-03T21:27:10.398Z,15.05
2018-02-03T21:29:42.231Z,14.20
2018-02-03T21:32:10.270Z,16.62
2018-02-03T21:34:40.039Z,14.75
2018-02-03T21:37:10.062Z,15.10
2018-02-03T21:39:39.034Z,16.85
2018-02-03T21:42:17.435Z,16.10
2018-02-03T21:45:02.770Z,19.02
2018-02-03T21:47:33.502Z,12.57
2018-02-03T21:50:08.378Z,15.73
2018-02-03T21:52:38.106Z,15.38
2018-02-03T21:55:09.154Z,14.73
2018-02-03T21:57:39.238Z,15.27
2018-02-03T22:00:09.254Z,19.65
2018-02-03T22:02:37.320Z,16.48
2018-02-03T22:05:12.778Z,18.48
2018-02-03T22:07:45.794Z,16.67
2018-02-03T22:10:18.450Z,20.45
2018-02-03T22:12:50.290Z,16.77
2018-02-03T22:15:23.030Z,17.92
2018-02-03T22:17:52.810Z,21.20
2018-02-03T22:23:01.494Z,18.40
2018-02-03T22:25:49.140Z,19.42
2018-02-03T22:28:20.795Z,22.55
2018-02-03T22:30:52.494Z,20.70
2018-02-03T22:33:22.539Z,18.17
2018-02-03T22:35:52.366Z,19.58
2018-02-03T22:38:21.759Z,21.73
2018-02-03T22:40:49.918Z,17.87
2018-02-03T22:43:22.438Z,20.02
2018-02-03T22:45:54.130Z,21.85
2018-02-03T22:48:25.790Z,21.52
2018-02-03T22:50:55.806Z,19.67
2018-02-03T22:53:24.954Z,19.37
2018-02-03T22:55:55.638Z,23.00
2018-02-03T22:58:29.434Z,22.50
2018-02-03T23:03:52.114Z,13.88
2018-02-03T23:06:21.914Z,20.65
2018-02-03T23:08:53.466Z,21.30
2018-02-03T23:11:23.510Z,21.73
2018-02-03T23:13:51.550Z,21.25
2018-02-03T23:16:21.550Z,19.77
2018-02-03T23:18:49.569Z,22.75
2018-02-03T23:21:18.494Z,23.55
2018-02-03T23:23:46.534Z,19.33
2018-02-03T23:26:15.466Z,23.05
2018-02-03T23:28:50.865Z,18.55
2018-02-03T23:31:18.830Z,20.10
2018-02-03T23:33:54.317Z,16.87
2018-02-03T23:36:30.589Z,21.27
2018-02-03T23:38:58.614Z,20.50
2018-02-03T23:41:26.658Z,18.67
2018-02-03T23:44:08.994Z,23.48
2018-02-03T23:46:37.790Z,22.50
2018-02-03T23:49:06.716Z,21.55
2018-02-03T23:51:34.731Z,19.75
2018-02-03T23:54:03.754Z,21.20
2018-02-03T23:56:33.446Z,19.80
2018-02-03T23:59:01.638Z,18.92
